Brainerd, MN

10:15 PM CST on December 07, 2016 (GMT -0600)
Northeast Brainerd | | Change Station

Elev 1249 ft 46.37 °N, 94.18 °W | Updated 1 minute ago

Overcast
Overcast
17.1 °F
Feels Like 8 °F
N
6.9
Wind Variable Wind from West
Gusts 9.3 mph

Today
High -- | Low -- °F
--% Chance of Precip.
Yesterday
High -- | Low -- °F
Precip. -- in
Pressure 30.10 in
Visibility 6.0 miles
Clouds Scattered Clouds 1800 ft
Overcast 4800 ft
Windchill 8 °F
Dew Point 13 °F
Humidity 84%
Rainfall 0.00 in
Snow Depth Not available.
7:46 AM 4:30 PM
First Quarter, 59% visible
METAR KBRD 080353Z AUTO 28011KT 6SM HZ SCT018 OVC048 M08/M11 A3003 RMK AO2 SNE16 SLP193 P0000 T10831111
Pressure 30.10 in
Visibility 6.0 miles
Clouds Scattered Clouds 1800 ft
Overcast 4800 ft
Windchill 8 °F
Dew Point 13 °F
Humidity 84%
Rainfall 0.00 in
Snow Depth Not available.
7:46 AM 4:30 PM
First Quarter, 59% visible
METAR KBRD 080353Z AUTO 28011KT 6SM HZ SCT018 OVC048 M08/M11 A3003 RMK AO2 SNE16 SLP193 P0000 T10831111

10-Day Weather Forecast

Almanac

Astronomy

Dec. 07, 2016 Rise Set
Actual Time
Civil Twilight
Nautical Twilight
Astronomical Twilight
Moon
Length of Visible Light
Length of Day
Tomorrow will be .
, % of the Moon is Illuminated

Today's Extremes

State Highs State Lows

Community

WunderPhotos

Upload Photos

1,956,259 photos uploaded!

WunderBlog® & News

Nearby

Air Quality

  Air Quality AQ Index Pollutant
Not available.

Snow Depth

Station Depth Elevation

Earthquake Activity

City Distance Mag. Time & Date
Minimum magnitude displayed is 2.5.

Coastal Water Temperatures

Place Temperature

Stations

Nearby Weather Stations

Station Location Temp. Windchill Dew Point Humidity Wind Precip. Elev Updated Type
                   

Watches & Warnings

There are currently no watches in effect.